Terminal Aerodrome Forecast
Issued by NWS Wilmington, OH

Current Version | Previous Version | Text Only | Print | Product List | Glossary On
Versions: 1 2 3 4 5 6 7 8 9 10 11 12 13 14 15 16 17
000 FTUS41 KILN 281500 AAA TAFCMH TAF AMD KCMH 281500Z 2815/2912 35008KT P6SM OVC007 FM281800 35007KT P6SM OVC012 FM282100 01007KT P6SM BKN025 FM290800 01006KT P6SM BKN025=

USA.gov is the U.S. government's official web portal to all federal, state and local government web resources and services.